createdAt,value
2019-02-19T00:00:37.428Z,5.70
2019-02-19T00:03:07.207Z,5.70
2019-02-19T00:05:36.588Z,5.70
2019-02-19T00:08:06.459Z,5.60
2019-02-19T00:10:35.814Z,5.60
2019-02-19T00:13:05.246Z,5.60
2019-02-19T00:15:34.627Z,5.60
2019-02-19T00:18:03.978Z,5.60
2019-02-19T00:20:33.358Z,5.50
2019-02-19T00:23:02.739Z,5.50
2019-02-19T00:25:32.104Z,5.50
2019-02-19T00:28:01.478Z,5.50
2019-02-19T00:30:31.197Z,5.50
2019-02-19T00:33:00.572Z,5.40
2019-02-19T00:35:29.947Z,5.40
2019-02-19T00:37:59.342Z,5.40
2019-02-19T00:40:28.725Z,5.40
2019-02-19T00:42:58.091Z,5.40
2019-02-19T00:45:27.475Z,5.40
2019-02-19T00:47:56.864Z,5.40
2019-02-19T00:50:26.247Z,5.40
2019-02-19T00:52:55.663Z,5.30
2019-02-19T00:55:25.030Z,5.30
2019-02-19T00:57:56.187Z,5.30
2019-02-19T01:00:25.690Z,5.30
2019-02-19T01:02:55.071Z,5.30
2019-02-19T01:05:24.773Z,5.30
2019-02-19T01:07:54.233Z,5.20
2019-02-19T01:10:23.610Z,5.30
2019-02-19T01:12:53.057Z,5.20
2019-02-19T01:15:25.412Z,5.20
2019-02-19T01:17:53.943Z,5.20
2019-02-19T01:20:23.315Z,5.20
2019-02-19T01:22:52.669Z,5.20
2019-02-19T01:25:22.030Z,5.20
2019-02-19T01:27:51.412Z,5.10
2019-02-19T01:30:20.779Z,5.20
2019-02-19T01:32:50.165Z,5.10
2019-02-19T01:35:19.528Z,5.10
2019-02-19T01:37:49.967Z,5.10
2019-02-19T01:40:19.344Z,5.10
2019-02-19T01:42:48.721Z,5.10
2019-02-19T01:45:18.109Z,5.10
2019-02-19T01:47:47.473Z,5.10
2019-02-19T01:50:16.869Z,5.10
2019-02-19T01:52:46.282Z,5.10
2019-02-19T02:14:34.767Z,2.10
2019-02-19T02:17:04.149Z,2.40
2019-02-19T02:19:33.512Z,2.70
2019-02-19T02:22:02.908Z,3.00
2019-02-19T02:24:32.277Z,3.30
2019-02-19T02:27:01.643Z,3.50
2019-02-19T02:29:31.049Z,3.70
2019-02-19T02:32:00.416Z,3.80
2019-02-19T02:34:29.780Z,4.00
2019-02-19T02:36:59.208Z,4.10
2019-02-19T02:39:28.576Z,4.10
2019-02-19T02:41:57.948Z,4.20
2019-02-19T02:44:27.360Z,4.30
2019-02-19T02:46:56.757Z,4.40
2019-02-19T02:49:26.098Z,4.40
2019-02-19T02:51:55.502Z,4.50
2019-02-19T02:54:24.894Z,4.50
2019-02-19T02:56:54.290Z,4.50
2019-02-19T02:59:23.731Z,4.60
2019-02-19T03:01:53.105Z,4.60
2019-02-19T03:04:22.470Z,4.60
2019-02-19T03:06:59.234Z,4.60
2019-02-19T03:09:28.587Z,4.60
2019-02-19T03:11:59.008Z,4.60
2019-02-19T03:14:28.428Z,4.70
2019-02-19T03:16:58.121Z,4.60
2019-02-19T03:19:27.503Z,4.70
2019-02-19T03:21:57.447Z,4.70
2019-02-19T03:24:26.817Z,4.70
2019-02-19T03:26:56.205Z,4.70
2019-02-19T03:29:25.591Z,4.60
2019-02-19T03:31:54.955Z,4.60
2019-02-19T03:34:24.313Z,4.70
2019-02-19T03:36:54.303Z,4.70
2019-02-19T03:39:23.681Z,4.60
2019-02-19T03:41:53.034Z,4.60
2019-02-19T03:44:22.420Z,4.60
2019-02-19T03:46:51.823Z,4.60
2019-02-19T03:49:21.201Z,4.70
2019-02-19T03:51:50.616Z,4.70
2019-02-19T03:54:19.971Z,4.70
2019-02-19T03:56:49.354Z,4.70
2019-02-19T03:59:18.787Z,4.70
2019-02-19T04:01:48.176Z,4.70
2019-02-19T04:04:17.545Z,4.70
2019-02-19T04:06:47.291Z,4.80
2019-02-19T04:09:16.641Z,4.80
2019-02-19T04:11:46.010Z,4.80
2019-02-19T04:14:15.383Z,4.90
2019-02-19T04:16:44.760Z,4.90
2019-02-19T04:19:14.935Z,4.90
2019-02-19T04:21:44.318Z,5.00
2019-02-19T04:24:13.692Z,5.00
2019-02-19T04:26:43.066Z,5.00
2019-02-19T04:29:12.449Z,5.10
2019-02-19T04:31:41.817Z,5.10
2019-02-19T04:34:11.165Z,5.20
2019-02-19T04:36:40.559Z,5.20
2019-02-19T04:39:09.915Z,5.20
2019-02-19T04:41:39.966Z,5.30
2019-02-19T04:44:10.043Z,5.30
2019-02-19T04:46:39.421Z,5.40
2019-02-19T04:49:08.794Z,5.40
2019-02-19T04:51:38.775Z,5.40
2019-02-19T04:54:08.127Z,5.50
2019-02-19T04:56:37.511Z,5.60
2019-02-19T04:59:06.888Z,5.70
2019-02-19T05:04:01.860Z,5.90
2019-02-19T05:06:31.626Z,6.00
2019-02-19T05:09:00.990Z,6.10
2019-02-19T05:11:30.360Z,6.20
2019-02-19T05:14:00.053Z,6.30
2019-02-19T05:16:29.415Z,6.40
2019-02-19T05:18:58.801Z,6.50
2019-02-19T05:21:28.512Z,6.60
2019-02-19T05:23:57.882Z,6.70
2019-02-19T05:26:27.266Z,6.80
2019-02-19T05:28:56.725Z,6.90
2019-02-19T05:31:26.110Z,7.00
2019-02-19T05:33:55.452Z,7.10
2019-02-19T05:36:24.835Z,7.20
2019-02-19T05:38:54.188Z,7.20
2019-02-19T05:41:23.544Z,7.30
2019-02-19T05:43:52.933Z,7.30
2019-02-19T05:46:22.276Z,7.40
2019-02-19T05:48:51.634Z,7.50
2019-02-19T05:51:21.440Z,7.60
2019-02-19T05:53:50.791Z,7.60
2019-02-19T05:56:20.533Z,7.70
2019-02-19T05:58:49.930Z,7.70
2019-02-19T06:01:19.288Z,7.80
2019-02-19T06:03:48.644Z,7.80
2019-02-19T06:06:18.018Z,7.80
2019-02-19T06:08:47.377Z,7.90
2019-02-19T06:11:16.737Z,7.90
2019-02-19T06:13:46.940Z,8.00
2019-02-19T06:16:16.269Z,8.00
2019-02-19T06:18:45.638Z,8.00
2019-02-19T06:21:15.217Z,8.00
2019-02-19T06:23:45.709Z,8.10
2019-02-19T06:26:15.077Z,8.10
2019-02-19T06:28:44.464Z,8.10
2019-02-19T06:31:13.839Z,8.10
2019-02-19T06:33:43.220Z,8.10
2019-02-19T06:36:13.119Z,8.10
2019-02-19T06:38:42.487Z,8.20
2019-02-19T06:41:11.866Z,8.20
2019-02-19T06:43:41.236Z,8.20
2019-02-19T06:46:10.614Z,8.20
2019-02-19T06:48:39.976Z,8.20
2019-02-19T06:51:09.355Z,8.30
2019-02-19T06:53:38.725Z,8.30
2019-02-19T06:56:08.091Z,8.40
2019-02-19T06:58:37.878Z,8.40
2019-02-19T07:01:07.250Z,8.40
2019-02-19T07:03:38.251Z,8.50
2019-02-19T07:06:07.663Z,8.50
2019-02-19T07:08:37.062Z,8.50
2019-02-19T07:11:06.634Z,8.60
2019-02-19T07:13:36.156Z,8.60
2019-02-19T07:16:05.548Z,8.70
2019-02-19T07:18:34.915Z,8.70
2019-02-19T07:21:05.119Z,8.70
2019-02-19T07:23:34.504Z,8.80
2019-02-19T07:26:04.540Z,8.80
2019-02-19T07:28:33.925Z,8.80
2019-02-19T07:31:03.303Z,8.90
2019-02-19T07:33:32.671Z,8.90
2019-02-19T07:36:02.071Z,8.90
2019-02-19T07:38:31.416Z,8.90
2019-02-19T07:41:00.803Z,9.00
2019-02-19T07:43:30.881Z,9.00
2019-02-19T07:46:00.250Z,9.00
2019-02-19T07:48:29.603Z,9.00
2019-02-19T07:50:59.083Z,9.10
2019-02-19T07:53:28.430Z,9.10
2019-02-19T07:55:57.790Z,9.10
2019-02-19T07:58:27.234Z,9.20
2019-02-19T08:00:56.601Z,9.20
2019-02-19T08:03:25.949Z,9.20
2019-02-19T08:05:55.747Z,9.20
2019-02-19T08:08:25.089Z,9.20
2019-02-19T08:10:54.470Z,9.30
2019-02-19T08:13:23.841Z,9.30
2019-02-19T08:15:53.185Z,9.30
2019-02-19T08:18:22.540Z,9.30
2019-02-19T08:20:51.930Z,9.40
2019-02-19T08:23:21.303Z,9.40
2019-02-19T08:25:50.675Z,9.40
2019-02-19T08:28:21.511Z,9.40
2019-02-19T08:30:50.893Z,9.50
2019-02-19T08:33:20.264Z,9.50
2019-02-19T08:35:49.672Z,9.50
2019-02-19T08:38:19.028Z,9.60
2019-02-19T08:40:48.397Z,9.60
2019-02-19T08:43:17.780Z,9.70
2019-02-19T08:45:47.152Z,9.70
2019-02-19T08:48:16.525Z,9.80
2019-02-19T08:50:46.585Z,9.80
2019-02-19T08:53:15.966Z,9.80
2019-02-19T08:55:45.333Z,9.90
2019-02-19T08:58:14.714Z,9.90
2019-02-19T09:00:44.076Z,9.90
2019-02-19T09:03:13.439Z,10.00
2019-02-19T09:05:42.821Z,10.00
2019-02-19T09:08:12.190Z,10.10
2019-02-19T09:10:41.571Z,10.20
2019-02-19T09:13:11.335Z,10.20
2019-02-19T09:15:40.713Z,10.30
2019-02-19T09:18:10.074Z,10.30
2019-02-19T09:20:39.453Z,10.40
2019-02-19T09:23:08.837Z,10.50
2019-02-19T09:25:38.190Z,10.50
2019-02-19T09:28:07.563Z,10.60
2019-02-19T09:30:37.250Z,10.60
2019-02-19T09:33:06.606Z,10.70
2019-02-19T09:35:36.007Z,10.70
2019-02-19T09:38:05.370Z,10.70
2019-02-19T09:40:34.738Z,10.80
2019-02-19T09:43:04.121Z,10.80
2019-02-19T09:45:33.495Z,10.90
2019-02-19T09:48:02.866Z,10.90
2019-02-19T09:50:32.277Z,11.00
2019-02-19T09:53:01.661Z,11.10
2019-02-19T09:55:31.009Z,11.20
2019-02-19T09:58:00.403Z,11.30
2019-02-19T10:00:29.828Z,11.40
2019-02-19T10:02:59.205Z,11.40
2019-02-19T10:05:28.573Z,11.50
2019-02-19T10:07:57.939Z,11.60
2019-02-19T10:10:27.310Z,11.60
2019-02-19T10:12:56.700Z,11.60
2019-02-19T10:15:26.053Z,11.60
2019-02-19T10:17:55.416Z,11.70
2019-02-19T10:20:24.808Z,11.70
2019-02-19T10:22:54.170Z,11.70
2019-02-19T10:25:23.535Z,11.80
2019-02-19T10:27:52.924Z,11.80
2019-02-19T10:30:22.281Z,11.80
2019-02-19T10:32:52.677Z,11.80
2019-02-19T10:35:22.096Z,11.90
2019-02-19T10:37:51.890Z,11.90
2019-02-19T10:40:21.982Z,12.00
2019-02-19T10:42:51.366Z,12.10
2019-02-19T10:45:23.643Z,12.20
2019-02-19T10:47:53.006Z,12.20
2019-02-19T10:50:22.485Z,12.20
2019-02-19T10:52:51.862Z,12.30
2019-02-19T10:55:21.241Z,12.30
2019-02-19T10:57:51.010Z,12.40
2019-02-19T11:00:22.671Z,12.40
2019-02-19T11:02:52.048Z,12.50
2019-02-19T11:05:21.786Z,12.50
2019-02-19T11:07:51.150Z,12.50
2019-02-19T11:10:20.514Z,12.50
2019-02-19T11:12:49.911Z,12.50
2019-02-19T11:15:19.335Z,12.60
2019-02-19T11:17:48.697Z,12.60
2019-02-19T11:22:57.099Z,12.70
2019-02-19T11:25:26.482Z,12.80
2019-02-19T11:27:55.842Z,12.80
2019-02-19T11:30:25.374Z,12.80
2019-02-19T11:32:54.787Z,12.90
2019-02-19T11:35:25.621Z,12.90
2019-02-19T11:37:55.013Z,12.90
2019-02-19T11:40:24.400Z,13.00
2019-02-19T11:42:53.781Z,13.00
2019-02-19T11:45:23.226Z,13.10
2019-02-19T11:47:52.614Z,13.10
2019-02-19T11:50:22.006Z,13.10
2019-02-19T11:52:51.408Z,13.20
2019-02-19T11:55:21.041Z,13.20
2019-02-19T11:57:50.408Z,13.20
2019-02-19T12:00:33.459Z,13.20
2019-02-19T12:03:02.853Z,13.20
2019-02-19T12:05:32.198Z,13.30
2019-02-19T12:08:02.340Z,13.30
2019-02-19T12:10:31.715Z,13.30
2019-02-19T12:13:01.077Z,13.30
2019-02-19T12:15:35.280Z,13.40
2019-02-19T12:18:01.585Z,13.40
2019-02-19T12:20:30.974Z,13.50
2019-02-19T12:23:00.410Z,13.50
2019-02-19T12:25:29.778Z,13.50
2019-02-19T12:27:59.156Z,13.50
2019-02-19T12:30:28.604Z,13.60
2019-02-19T12:32:57.977Z,13.60
2019-02-19T12:35:27.348Z,13.60
2019-02-19T12:37:57.912Z,13.60
2019-02-19T12:40:27.315Z,13.60
2019-02-19T12:42:56.695Z,13.60
2019-02-19T12:45:26.160Z,13.60
2019-02-19T12:47:55.473Z,13.60
2019-02-19T12:50:24.835Z,13.60
2019-02-19T12:52:54.236Z,13.60
2019-02-19T12:58:22.053Z,13.60
2019-02-19T13:00:51.499Z,13.60
2019-02-19T13:03:20.867Z,13.70
2019-02-19T13:05:50.336Z,13.70
2019-02-19T13:08:19.705Z,13.80
2019-02-19T13:10:49.074Z,13.90
2019-02-19T13:13:18.459Z,14.00
2019-02-19T13:15:47.849Z,14.00
2019-02-19T13:18:17.223Z,14.10
2019-02-19T13:20:46.634Z,14.10
2019-02-19T13:23:16.002Z,14.20
2019-02-19T13:25:45.376Z,14.20
2019-02-19T13:28:15.214Z,14.20
2019-02-19T13:30:44.576Z,14.20
2019-02-19T13:33:13.973Z,14.10
2019-02-19T13:35:43.355Z,14.10
2019-02-19T13:38:12.739Z,14.10
2019-02-19T13:40:43.482Z,14.10
2019-02-19T13:43:12.891Z,14.00
2019-02-19T13:45:42.261Z,14.00
2019-02-19T13:48:11.653Z,13.90
2019-02-19T13:50:41.418Z,13.90
2019-02-19T13:53:12.472Z,13.90
2019-02-19T13:55:44.806Z,13.90
2019-02-19T13:58:14.205Z,13.80
2019-02-19T14:00:45.232Z,13.80
2019-02-19T14:03:14.610Z,13.70
2019-02-19T14:05:44.409Z,13.70
2019-02-19T14:08:14.835Z,13.70
2019-02-19T14:10:44.407Z,13.60
2019-02-19T14:13:14.076Z,13.60
2019-02-19T14:16:03.155Z,13.50
2019-02-19T14:18:53.312Z,13.40
2019-02-19T14:21:24.324Z,13.40
2019-02-19T14:24:11.634Z,13.30
2019-02-19T14:26:59.253Z,13.30
2019-02-19T14:29:46.402Z,13.20
2019-02-19T14:32:33.540Z,13.10
2019-02-19T14:35:16.596Z,13.10
2019-02-19T14:38:03.790Z,13.10
2019-02-19T14:40:51.070Z,13.00
2019-02-19T14:43:32.334Z,13.00
2019-02-19T14:46:18.739Z,13.00
2019-02-19T14:48:52.815Z,13.00
2019-02-19T14:51:38.997Z,13.00
2019-02-19T14:54:25.928Z,13.00
2019-02-19T14:56:57.306Z,12.90
2019-02-19T14:59:40.612Z,12.90
2019-02-19T15:02:11.651Z,12.90
2019-02-19T15:05:01.127Z,12.90
2019-02-19T15:07:34.775Z,12.80
2019-02-19T15:10:22.067Z,12.80
2019-02-19T15:12:53.761Z,12.70
2019-02-19T15:15:41.244Z,12.70
2019-02-19T15:18:12.328Z,12.70
2019-02-19T15:20:43.300Z,12.60
2019-02-19T15:23:14.324Z,12.60
2019-02-19T15:25:48.385Z,12.60
2019-02-19T15:28:37.651Z,12.60
2019-02-19T15:31:08.801Z,12.50
2019-02-19T15:33:39.814Z,12.50
2019-02-19T15:36:27.103Z,12.50
2019-02-19T15:38:58.136Z,12.40
2019-02-19T15:41:31.802Z,12.40
2019-02-19T15:44:18.000Z,12.40
2019-02-19T15:46:50.161Z,12.40
2019-02-19T15:49:38.203Z,12.40
2019-02-19T15:52:09.219Z,12.30
2019-02-19T15:54:56.566Z,12.30
2019-02-19T15:57:27.578Z,12.20
2019-02-19T16:00:14.515Z,12.20
2019-02-19T16:02:45.507Z,12.20
2019-02-19T16:05:26.107Z,12.20
2019-02-19T16:08:06.117Z,12.20
2019-02-19T16:10:42.635Z,12.10
2019-02-19T16:13:13.639Z,12.10
2019-02-19T16:15:53.663Z,12.10
2019-02-19T16:56:10.749Z,11.00
2019-02-19T16:58:44.587Z,11.00
2019-02-19T17:01:15.619Z,11.10
2019-02-19T17:03:49.434Z,11.10
2019-02-19T17:06:23.180Z,11.20
2019-02-19T17:08:54.223Z,11.20
2019-02-19T17:11:26.234Z,11.20
2019-02-19T17:14:09.525Z,11.20
2019-02-19T17:16:49.577Z,11.20
2019-02-19T17:19:26.531Z,11.20
2019-02-19T17:22:13.920Z,11.10
2019-02-19T17:24:53.721Z,11.10
2019-02-19T17:27:26.230Z,11.00
2019-02-19T17:30:13.773Z,11.00
2019-02-19T17:32:53.835Z,11.00
2019-02-19T17:35:27.301Z,11.00
2019-02-19T17:37:58.310Z,10.90
2019-02-19T17:40:38.796Z,10.90
2019-02-19T17:43:15.707Z,10.90
2019-02-19T17:45:47.207Z,10.90
2019-02-19T17:48:27.165Z,10.90
2019-02-19T17:51:04.251Z,10.90
2019-02-19T17:53:38.440Z,10.90
2019-02-19T17:56:12.554Z,10.90
2019-02-19T17:58:59.662Z,10.80
2019-02-19T18:01:47.187Z,10.80
2019-02-19T18:04:32.881Z,10.70
2019-02-19T18:07:19.295Z,10.70
2019-02-19T18:09:59.057Z,10.70
2019-02-19T18:12:30.083Z,10.60
2019-02-19T18:15:16.964Z,10.60
2019-02-19T18:17:54.326Z,10.60
2019-02-19T18:20:23.688Z,10.60
2019-02-19T18:22:53.068Z,10.50
2019-02-19T18:25:22.499Z,10.50
2019-02-19T18:27:51.808Z,10.50
2019-02-19T18:30:21.186Z,10.50
2019-02-19T18:32:50.620Z,10.50
2019-02-19T18:35:20.058Z,10.40
2019-02-19T18:37:49.432Z,10.40
2019-02-19T18:40:19.291Z,10.40
2019-02-19T18:42:49.070Z,10.30
2019-02-19T18:45:18.420Z,10.30
2019-02-19T18:47:47.820Z,10.20
2019-02-19T18:50:17.226Z,10.20
2019-02-19T18:52:46.592Z,10.10
2019-02-19T18:55:16.039Z,10.10
2019-02-19T18:57:45.425Z,10.00
2019-02-19T19:00:15.040Z,10.00
2019-02-19T19:02:45.161Z,9.90
2019-02-19T19:05:14.588Z,9.90
2019-02-19T19:07:44.107Z,9.80
2019-02-19T19:10:13.705Z,9.70
2019-02-19T19:12:43.056Z,9.70
2019-02-19T19:15:12.555Z,9.60
2019-02-19T19:17:41.960Z,9.60
2019-02-19T19:20:12.916Z,9.50
2019-02-19T19:22:42.355Z,9.50
2019-02-19T19:25:12.996Z,9.40
2019-02-19T19:27:42.361Z,9.40
2019-02-19T19:30:15.047Z,9.30
2019-02-19T19:32:44.426Z,9.30
2019-02-19T19:35:13.813Z,9.20
2019-02-19T19:37:43.191Z,9.20
2019-02-19T19:40:13.472Z,9.10
2019-02-19T19:42:42.909Z,9.00
2019-02-19T19:45:13.022Z,9.00
2019-02-19T19:47:42.794Z,8.90
2019-02-19T19:50:12.593Z,8.90
2019-02-19T19:52:42.505Z,8.80
2019-02-19T19:55:12.404Z,8.80
2019-02-19T19:57:44.135Z,8.70
2019-02-19T20:00:14.515Z,8.70
2019-02-19T20:02:45.742Z,8.60
2019-02-19T20:05:15.181Z,8.60
2019-02-19T20:07:44.782Z,8.50
2019-02-19T20:10:15.759Z,8.50
2019-02-19T20:12:45.124Z,8.50
2019-02-19T20:15:14.563Z,8.40
2019-02-19T20:17:43.949Z,8.40
2019-02-19T20:20:13.870Z,8.40
2019-02-19T20:22:43.286Z,8.30
2019-02-19T20:25:15.823Z,8.30
2019-02-19T20:27:45.365Z,8.20
2019-02-19T20:30:16.867Z,8.20
2019-02-19T20:32:46.282Z,8.10
2019-02-19T20:35:15.651Z,8.10
2019-02-19T20:37:53.497Z,8.10
2019-02-19T20:40:16.176Z,8.00
2019-02-19T20:42:45.555Z,8.00
2019-02-19T20:45:15.017Z,8.00
2019-02-19T20:47:44.729Z,7.90
2019-02-19T20:50:14.850Z,7.90
2019-02-19T20:52:44.233Z,7.90
2019-02-19T20:55:13.738Z,7.80
2019-02-19T20:57:43.098Z,7.80
2019-02-19T21:00:17.912Z,7.80
2019-02-19T21:02:47.309Z,7.70
2019-02-19T21:05:16.877Z,7.70
2019-02-19T21:07:46.289Z,7.60
2019-02-19T21:10:18.536Z,7.60
2019-02-19T21:12:47.872Z,7.60
2019-02-19T21:15:17.432Z,7.50
2019-02-19T21:17:46.861Z,7.50
2019-02-19T21:20:16.263Z,7.50
2019-02-19T21:22:45.635Z,7.40
2019-02-19T21:25:15.700Z,7.40
2019-02-19T21:27:45.097Z,7.30
2019-02-19T21:30:16.410Z,7.30
2019-02-19T21:32:45.828Z,7.20
2019-02-19T21:35:15.201Z,7.20
2019-02-19T21:37:44.572Z,7.20
2019-02-19T21:40:16.630Z,7.10
2019-02-19T21:42:45.988Z,7.10
2019-02-19T21:45:16.204Z,7.00
2019-02-19T21:47:45.580Z,7.00
2019-02-19T21:50:15.908Z,7.00
2019-02-19T21:52:46.040Z,7.00
2019-02-19T21:55:15.464Z,6.90
2019-02-19T21:57:44.832Z,6.90
2019-02-19T22:00:17.751Z,6.90
2019-02-19T22:02:48.501Z,6.90
2019-02-19T22:05:17.863Z,6.80
2019-02-19T22:07:47.227Z,6.80
2019-02-19T22:10:16.720Z,6.80
2019-02-19T22:12:46.073Z,6.80
2019-02-19T22:15:16.245Z,6.80
2019-02-19T22:17:45.677Z,6.70
2019-02-19T22:20:34.921Z,6.70
2019-02-19T22:23:04.687Z,6.70
2019-02-19T22:25:34.058Z,6.60
2019-02-19T22:28:03.416Z,6.60
2019-02-19T22:30:32.808Z,6.60
2019-02-19T22:33:02.271Z,6.60
2019-02-19T22:35:31.645Z,6.60
2019-02-19T22:38:01.004Z,6.50
2019-02-19T22:40:30.368Z,6.50
2019-02-19T22:42:59.764Z,6.50
2019-02-19T22:45:29.439Z,6.50
2019-02-19T22:47:58.825Z,6.40
2019-02-19T22:50:28.281Z,6.40
2019-02-19T22:52:57.636Z,6.40
2019-02-19T22:55:28.634Z,6.40
2019-02-19T22:57:58.005Z,6.30
2019-02-19T23:00:40.077Z,6.30
2019-02-19T23:03:09.447Z,6.20
2019-02-19T23:05:39.112Z,6.20
2019-02-19T23:08:08.507Z,6.20
2019-02-19T23:10:37.942Z,6.20
2019-02-19T23:13:07.343Z,6.10
2019-02-19T23:15:36.772Z,6.10
2019-02-19T23:18:06.142Z,6.10
2019-02-19T23:20:35.510Z,6.10
2019-02-19T23:23:04.956Z,6.00
2019-02-19T23:25:34.305Z,6.00
2019-02-19T23:28:03.904Z,6.00
2019-02-19T23:30:33.780Z,6.00
2019-02-19T23:33:03.221Z,5.90
2019-02-19T23:35:34.229Z,5.90
2019-02-19T23:38:03.600Z,5.90
2019-02-19T23:40:32.965Z,5.90
2019-02-19T23:43:02.340Z,5.80
2019-02-19T23:45:32.087Z,5.80
2019-02-19T23:48:01.442Z,5.80
2019-02-19T23:50:30.809Z,5.80
2019-02-19T23:53:00.184Z,5.80
2019-02-19T23:55:29.568Z,5.70
2019-02-19T23:57:58.926Z,5.70
